Time;durP1;ratioP1;P1;durP2;ratioP2;P2;SDS_P1;SDS_P2;PMS_P1;PMS_P2;Temp;Humidity;BMP_temperature;BMP_pressure;BME280_temperature;BME280_humidity;BME280_pressure;Samples;Min_cycle;Max_cycle;Signal;HPM_P1;HPM_P2
2022/11/21 00:01:25;;;;;;;50.22;25.90;;;7.30;99.90;;;;;;5096722;28;20268;-74
2022/11/21 00:03:51;;;;;;;46.03;24.05;;;7.30;99.90;;;;;;5096572;28;20657;-74
2022/11/21 00:06:17;;;;;;;38.30;23.63;;;7.30;99.90;;;;;;5096413;28;20242;-74
2022/11/21 00:08:44;;;;;;;43.72;23.77;;;7.30;99.90;;;;;;5114734;28;20168;-74
2022/11/21 00:11:09;;;;;;;43.20;21.70;;;7.30;99.90;;;;;;5096797;28;20549;-74
2022/11/21 00:13:35;;;;;;;41.43;22.30;;;7.20;99.90;;;;;;5096497;28;20178;-74
2022/11/21 00:16:05;;;;;;;42.67;23.20;;;7.20;99.90;;;;;;5115055;28;20543;-74
2022/11/21 00:18:32;;;;;;;41.50;22.38;;;7.20;99.90;;;;;;5113714;28;20217;-74
2022/11/21 00:21:13;;;;;;;37.47;22.30;;;7.20;99.90;;;;;;5096437;28;20697;-74
2022/11/21 00:23:38;;;;;;;43.92;22.70;;;7.20;99.90;;;;;;5096296;28;20184;-74
2022/11/21 00:26:06;;;;;;;40.07;21.67;;;7.20;99.90;;;;;;5114156;28;20280;-74
2022/11/21 00:28:32;;;;;;;42.30;21.80;;;7.20;99.90;;;;;;5096175;28;20266;-74
2022/11/21 00:30:58;;;;;;;43.75;22.60;;;7.20;99.90;;;;;;5114806;28;20284;-74
2022/11/21 00:33:23;;;;;;;41.67;22.40;;;7.20;99.90;;;;;;5114409;28;20203;-74
2022/11/21 00:35:49;;;;;;;40.90;23.20;;;7.20;99.90;;;;;;5114243;28;20196;-74
2022/11/21 00:38:15;;;;;;;45.40;22.90;;;7.20;99.90;;;;;;5114359;28;20652;-74
2022/11/21 00:40:44;;;;;;;39.93;20.47;;;7.20;99.90;;;;;;5114652;28;20612;-74
2022/11/21 00:43:09;;;;;;;38.22;20.73;;;7.10;99.90;;;;;;5114096;28;20455;-74
2022/11/21 00:45:35;;;;;;;43.57;22.23;;;7.10;99.90;;;;;;5114547;28;20660;-75
2022/11/21 00:48:01;;;;;;;40.17;21.00;;;7.10;99.90;;;;;;5114247;28;20186;-74
2022/11/21 00:50:27;;;;;;;43.40;22.35;;;7.10;99.90;;;;;;5114344;28;20440;-74
2022/11/21 00:52:57;;;;;;;40.40;22.03;;;7.10;99.90;;;;;;5114114;28;20659;-74
2022/11/21 00:55:23;;;;;;;35.47;20.45;;;7.10;99.90;;;;;;5095831;28;20199;-74
2022/11/21 00:57:49;;;;;;;36.45;20.27;;;7.00;99.90;;;;;;5114086;28;20172;-74
2022/11/21 01:00:16;;;;;;;34.50;19.87;;;7.00;99.90;;;;;;5114270;28;20683;-74
2022/11/21 01:02:42;;;;;;;38.55;22.38;;;7.00;99.90;;;;;;5114074;28;20210;-74
2022/11/21 01:05:08;;;;;;;36.30;20.33;;;6.90;99.90;;;;;;5095821;28;20200;-74
2022/11/21 01:07:34;;;;;;;40.05;20.85;;;6.90;99.90;;;;;;5114014;28;20203;-74
2022/11/21 01:09:59;;;;;;;40.17;21.87;;;6.90;99.90;;;;;;5095813;28;20288;-74
2022/11/21 01:12:25;;;;;;;42.23;21.40;;;6.80;99.90;;;;;;5113921;28;20431;-74
2022/11/21 01:14:51;;;;;;;38.43;21.37;;;6.80;99.90;;;;;;5114162;28;20198;-75
2022/11/21 01:17:17;;;;;;;37.13;21.90;;;6.80;99.90;;;;;;5113930;28;20171;-74
2022/11/21 01:19:44;;;;;;;38.23;20.87;;;6.80;99.90;;;;;;5113982;28;20594;-74
2022/11/21 01:22:09;;;;;;;41.17;21.63;;;6.80;99.90;;;;;;5113769;28;20252;-74
2022/11/21 01:24:35;;;;;;;41.33;22.17;;;6.80;99.90;;;;;;5095470;28;20195;-74
2022/11/21 01:27:01;;;;;;;40.67;22.55;;;6.70;99.90;;;;;;5095560;28;20262;-74
2022/11/21 01:29:27;;;;;;;47.03;26.33;;;6.70;99.90;;;;;;5096480;28;20202;-74
2022/11/21 01:31:53;;;;;;;57.03;29.93;;;6.70;99.90;;;;;;5099461;28;20465;-74
2022/11/21 01:34:19;;;;;;;52.90;27.90;;;6.70;99.90;;;;;;5117662;28;20534;-74
2022/11/21 01:36:44;;;;;;;53.28;27.52;;;6.70;99.90;;;;;;5117716;28;20175;-74
2022/11/21 01:39:11;;;;;;;43.03;23.53;;;6.70;99.90;;;;;;5099303;28;20184;-75
2022/11/21 01:41:39;;;;;;;41.33;24.25;;;6.70;99.90;;;;;;5099530;28;20210;-74
2022/11/21 01:44:21;;;;;;;44.05;22.77;;;6.60;99.90;;;;;;5117507;28;20172;-74
2022/11/21 01:46:48;;;;;;;35.78;19.50;;;6.60;99.90;;;;;;5099328;28;20679;-74
2022/11/21 01:49:17;;;;;;;40.63;21.95;;;6.60;99.90;;;;;;5099066;28;20180;-74
2022/11/21 01:51:54;;;;;;;45.67;23.40;;;6.60;99.90;;;;;;5117429;28;20688;-74
2022/11/21 01:54:30;;;;;;;39.17;20.77;;;6.50;99.90;;;;;;5098900;28;20210;-74
2022/11/21 01:57:34;;;;;;;44.17;22.63;;;6.50;99.90;;;;;;5099282;28;20183;-74
2022/11/21 02:00:11;;;;;;;41.85;21.73;;;6.50;99.90;;;;;;5117446;28;20555;-74
2022/11/21 02:02:46;;;;;;;35.35;18.85;;;6.50;99.90;;;;;;5117157;28;20191;-74
2022/11/21 02:05:18;;;;;;;41.03;22.77;;;6.50;99.90;;;;;;5098924;28;20336;-74
2022/11/21 02:07:46;;;;;;;42.55;22.40;;;6.50;99.90;;;;;;5117111;28;20212;-74
2022/11/21 02:10:13;;;;;;;41.75;22.63;;;6.50;99.90;;;;;;5098581;28;20196;-74
2022/11/21 02:12:41;;;;;;;43.67;22.42;;;6.50;99.90;;;;;;5098696;28;20182;-74
2022/11/21 02:15:08;;;;;;;32.78;19.15;;;6.50;99.90;;;;;;5116770;28;20211;-74
2022/11/21 02:17:34;;;;;;;39.80;21.23;;;6.50;99.90;;;;;;5098707;28;20627;-74
2022/11/21 02:20:06;;;;;;;39.07;19.77;;;6.50;99.90;;;;;;5098561;28;20223;-74
2022/11/21 02:22:40;;;;;;;35.30;18.67;;;6.50;99.90;;;;;;5116756;28;20452;-74
2022/11/21 02:25:13;;;;;;;32.85;19.85;;;6.50;99.90;;;;;;5116848;28;20199;-74
2022/11/21 02:27:39;;;;;;;36.55;19.60;;;6.50;99.90;;;;;;5116854;28;20221;-74
2022/11/21 02:30:07;;;;;;;32.43;17.80;;;6.50;99.90;;;;;;5116832;28;20274;-74
2022/11/21 02:32:37;;;;;;;39.05;19.92;;;6.50;99.90;;;;;;5116585;28;20833;-74
2022/11/21 02:35:04;;;;;;;41.03;21.52;;;6.50;99.90;;;;;;5098363;28;20218;-74
2022/11/21 02:37:31;;;;;;;35.38;19.75;;;6.50;99.90;;;;;;5098321;28;20704;-74
2022/11/21 02:39:59;;;;;;;34.50;19.75;;;6.50;99.90;;;;;;5098200;28;20214;-75
2022/11/21 02:42:38;;;;;;;43.35;19.35;;;6.50;99.90;;;;;;5115287;28;20231;-75
2022/11/21 02:45:20;;;;;;;37.10;20.08;;;6.50;99.90;;;;;;5098202;28;20231;-74
2022/11/21 02:47:49;;;;;;;36.22;18.42;;;6.50;99.90;;;;;;5116447;28;20198;-74
2022/11/21 02:50:20;;;;;;;36.08;19.90;;;6.50;99.90;;;;;;5116371;28;20219;-74
2022/11/21 02:52:46;;;;;;;35.75;19.45;;;6.50;99.90;;;;;;5116375;28;20167;-74
2022/11/21 02:55:14;;;;;;;34.90;19.03;;;6.50;99.90;;;;;;5116466;28;20254;-74
2022/11/21 02:57:39;;;;;;;35.42;17.63;;;6.50;99.90;;;;;;5098194;28;20211;-74
2022/11/21 03:00:06;;;;;;;37.07;18.73;;;6.50;99.90;;;;;;5097840;28;20223;-74
2022/11/21 03:02:31;;;;;;;32.17;19.00;;;6.50;99.90;;;;;;5116001;28;20544;-74
2022/11/21 03:04:57;;;;;;;39.30;19.63;;;6.40;99.90;;;;;;5116171;28;20203;-74
2022/11/21 03:07:22;;;;;;;31.10;17.93;;;6.40;99.90;;;;;;5097641;28;20696;-73
2022/11/21 03:09:48;;;;;;;33.23;19.37;;;6.40;99.90;;;;;;5097563;28;20211;-74
2022/11/21 03:12:14;;;;;;;39.60;21.40;;;6.40;99.90;;;;;;5115880;28;20547;-74
2022/11/21 03:14:39;;;;;;;41.23;20.70;;;6.40;99.90;;;;;;5097534;28;20207;-74
2022/11/21 03:17:05;;;;;;;38.13;20.10;;;6.40;99.90;;;;;;5097429;28;20172;-75
2022/11/21 03:19:30;;;;;;;36.03;20.13;;;6.40;99.90;;;;;;5097451;28;20196;-74
2022/11/21 03:21:56;;;;;;;37.50;19.20;;;6.40;99.90;;;;;;5097321;28;20288;-74
2022/11/21 03:24:22;;;;;;;39.93;19.90;;;6.40;99.90;;;;;;5097322;28;20203;-74
2022/11/21 03:26:47;;;;;;;38.40;18.83;;;6.40;99.90;;;;;;5115332;28;20216;-74
2022/11/21 03:29:13;;;;;;;39.27;20.27;;;6.40;99.90;;;;;;5115518;28;20211;-75
2022/11/21 03:31:38;;;;;;;37.33;19.60;;;6.40;99.90;;;;;;5097262;28;20339;-74
2022/11/21 03:34:04;;;;;;;32.90;19.60;;;6.40;99.90;;;;;;5097042;28;20180;-74
2022/11/21 03:36:30;;;;;;;43.00;21.07;;;6.40;99.90;;;;;;5115381;28;20191;-74
2022/11/21 03:38:56;;;;;;;39.03;21.70;;;6.40;99.90;;;;;;5097061;28;20183;-74
2022/11/21 03:41:29;;;;;;;34.70;19.08;;;6.40;99.90;;;;;;5096980;28;20649;-74
2022/11/21 03:44:06;;;;;;;44.40;21.52;;;6.40;99.90;;;;;;5097036;28;20184;-74
2022/11/21 03:46:41;;;;;;;41.35;20.52;;;6.40;99.90;;;;;;5115273;28;20164;-74
2022/11/21 03:49:07;;;;;;;36.60;19.65;;;6.30;99.90;;;;;;5115121;28;20186;-74
2022/11/21 03:51:34;;;;;;;38.83;20.80;;;6.30;99.90;;;;;;5115176;28;20633;-74
2022/11/21 03:54:00;;;;;;;41.53;20.98;;;6.30;99.90;;;;;;5096424;28;20232;-74
2022/11/21 03:56:26;;;;;;;36.90;19.05;;;6.30;99.90;;;;;;5114951;28;20176;-74
2022/11/21 03:58:52;;;;;;;36.63;18.23;;;6.30;99.90;;;;;;5096598;28;20608;-74
2022/11/21 04:01:18;;;;;;;42.45;21.13;;;6.30;99.90;;;;;;5114718;28;20221;-75
2022/11/21 04:03:44;;;;;;;38.20;20.15;;;6.30;99.90;;;;;;5114939;28;20633;-74
2022/11/21 04:06:12;;;;;;;39.10;20.35;;;6.30;99.90;;;;;;5115135;28;20249;-74
2022/11/21 04:08:38;;;;;;;38.13;21.20;;;6.30;99.90;;;;;;5114915;28;20171;-74
2022/11/21 04:11:04;;;;;;;40.60;21.80;;;6.30;99.90;;;;;;5115076;28;20330;-74
2022/11/21 04:13:29;;;;;;;39.07;19.90;;;6.30;99.90;;;;;;5114734;28;20568;-74
2022/11/21 04:15:55;;;;;;;40.70;21.20;;;6.30;99.90;;;;;;5096202;28;20446;-74
2022/11/21 04:18:21;;;;;;;35.63;20.90;;;6.30;99.90;;;;;;5114583;28;20168;-74
2022/11/21 04:20:46;;;;;;;47.83;22.17;;;6.30;99.90;;;;;;5114801;28;20234;-74
2022/11/21 04:23:13;;;;;;;41.90;21.27;;;6.30;99.90;;;;;;5114464;28;20245;-74
2022/11/21 04:25:40;;;;;;;42.38;22.42;;;6.30;99.90;;;;;;5096025;28;20283;-74
2022/11/21 04:28:06;;;;;;;46.85;23.05;;;6.30;99.90;;;;;;5096230;28;20184;-74
2022/11/21 04:30:33;;;;;;;38.20;21.35;;;6.30;99.90;;;;;;5096239;28;20200;-74
2022/11/21 04:32:59;;;;;;;43.85;21.52;;;6.30;99.90;;;;;;5114463;28;20539;-74
2022/11/21 04:35:25;;;;;;;39.73;20.93;;;6.30;99.90;;;;;;5096119;28;20218;-74
2022/11/21 04:37:51;;;;;;;44.63;22.60;;;6.30;99.90;;;;;;5096017;28;20916;-74
2022/11/21 04:40:17;;;;;;;48.17;24.00;;;6.30;99.90;;;;;;5096091;28;20218;-75
2022/11/21 04:42:44;;;;;;;42.23;22.47;;;6.30;99.90;;;;;;5114283;28;20558;-74
2022/11/21 04:45:11;;;;;;;38.10;21.35;;;6.30;99.90;;;;;;5113891;28;20211;-74
2022/11/21 04:47:37;;;;;;;47.97;21.83;;;6.30;99.90;;;;;;5114180;28;20201;-74
2022/11/21 04:50:04;;;;;;;45.15;22.90;;;6.30;99.90;;;;;;5114332;28;20204;-74
2022/11/21 04:52:30;;;;;;;41.88;21.02;;;6.30;99.90;;;;;;5114180;28;20519;-74
2022/11/21 04:54:56;;;;;;;47.17;23.23;;;6.30;99.90;;;;;;5114302;28;20207;-74
2022/11/21 04:57:21;;;;;;;38.50;23.10;;;6.30;99.90;;;;;;5095602;28;20396;-74
2022/11/21 04:59:47;;;;;;;44.43;22.87;;;6.30;99.90;;;;;;5114189;28;20195;-74
2022/11/21 05:02:13;;;;;;;45.33;22.90;;;6.30;99.90;;;;;;5113960;28;20214;-74
2022/11/21 05:04:38;;;;;;;45.47;24.30;;;6.30;99.90;;;;;;5096485;28;20210;-74
2022/11/21 05:07:04;;;;;;;42.87;23.80;;;6.30;99.90;;;;;;5099377;28;20262;-74
2022/11/21 05:09:29;;;;;;;44.07;22.50;;;6.30;99.90;;;;;;5099925;28;20207;-74
2022/11/21 05:14:39;;;;;;;42.53;20.42;;;6.20;99.90;;;;;;5118341;28;20238;-74
2022/11/21 05:17:05;;;;;;;38.93;22.40;;;6.20;99.90;;;;;;5099703;28;20632;-74
2022/11/21 05:19:31;;;;;;;45.17;23.70;;;6.20;99.90;;;;;;5117884;28;20565;-74
2022/11/21 05:21:56;;;;;;;49.40;22.30;;;6.20;99.90;;;;;;5099708;28;20260;-74
2022/11/21 05:24:22;;;;;;;43.73;23.60;;;6.20;99.90;;;;;;5099327;28;20212;-74
2022/11/21 05:26:47;;;;;;;41.97;21.80;;;6.20;99.90;;;;;;5116979;28;20407;-74
2022/11/21 05:29:13;;;;;;;41.67;22.47;;;6.20;99.90;;;;;;5116775;28;20191;-74
2022/11/21 05:31:39;;;;;;;41.17;22.80;;;6.10;99.90;;;;;;5099507;28;20178;-74
2022/11/21 05:34:04;;;;;;;43.93;23.40;;;6.10;99.90;;;;;;5099388;28;20708;-74
2022/11/21 05:36:30;;;;;;;51.57;26.37;;;6.10;99.90;;;;;;5098479;28;20182;-74
2022/11/21 05:38:56;;;;;;;40.97;24.23;;;6.10;99.90;;;;;;5117602;28;20484;-74
2022/11/21 05:41:24;;;;;;;46.00;23.90;;;6.10;99.90;;;;;;5117706;28;20270;-74
2022/11/21 05:43:50;;;;;;;43.28;22.92;;;6.00;99.90;;;;;;5117541;28;20191;-74
2022/11/21 05:46:19;;;;;;;45.47;24.17;;;6.00;99.90;;;;;;5117082;28;20200;-74
2022/11/21 05:48:46;;;;;;;48.85;25.10;;;6.00;99.90;;;;;;5116157;28;20604;-75
2022/11/21 05:51:11;;;;;;;42.53;24.65;;;5.90;99.90;;;;;;5117378;28;20206;-74
2022/11/21 05:53:37;;;;;;;43.70;22.80;;;5.90;99.90;;;;;;5117227;28;20176;-74
2022/11/21 05:56:09;;;;;;;42.93;22.83;;;5.90;99.90;;;;;;5117339;28;20272;-74
2022/11/21 05:58:35;;;;;;;50.45;26.60;;;5.90;99.90;;;;;;5115544;28;20808;-74
2022/11/21 06:01:01;;;;;;;44.50;26.00;;;5.90;99.90;;;;;;5116974;28;20235;-74
2022/11/21 06:03:31;;;;;;;47.75;25.50;;;5.90;99.90;;;;;;5116532;28;20460;-74
2022/11/21 06:06:05;;;;;;;55.42;25.63;;;5.90;99.90;;;;;;5092434;28;20707;-74
2022/11/21 06:08:37;;;;;;;41.03;23.50;;;5.90;99.90;;;;;;5112960;28;20171;-74
2022/11/21 06:11:04;;;;;;;40.22;23.83;;;5.90;99.90;;;;;;5116700;28;20199;-74
2022/11/21 06:13:32;;;;;;;41.95;22.10;;;5.90;99.90;;;;;;5094862;28;20717;-74
2022/11/21 06:16:01;;;;;;;46.88;24.20;;;5.90;99.90;;;;;;5091534;28;20207;-74
2022/11/21 06:18:28;;;;;;;44.05;21.40;;;5.90;99.90;;;;;;5097819;28;20184;-74
2022/11/21 06:20:59;;;;;;;47.20;23.85;;;5.90;99.90;;;;;;5115668;28;20612;-74
2022/11/21 06:23:24;;;;;;;45.95;23.40;;;5.90;99.90;;;;;;5115863;28;20210;-75
2022/11/21 06:25:56;;;;;;;59.10;26.07;;;5.90;99.90;;;;;;5091354;28;20814;-74
2022/11/21 06:28:21;;;;;;;49.63;25.13;;;5.90;99.90;;;;;;5084551;28;20228;-74
2022/11/21 06:30:50;;;;;;;48.20;24.13;;;5.90;99.90;;;;;;5106695;28;20623;-74
2022/11/21 06:33:16;;;;;;;42.80;24.25;;;5.90;99.90;;;;;;5094365;28;20176;-74
2022/11/21 06:35:43;;;;;;;50.47;26.25;;;5.90;99.90;;;;;;5093932;28;20212;-74
2022/11/21 06:38:11;;;;;;;46.33;24.45;;;5.90;99.90;;;;;;5111237;28;20191;-74
2022/11/21 06:40:37;;;;;;;38.03;23.17;;;5.90;99.90;;;;;;5109741;28;20199;-74
2022/11/21 06:43:02;;;;;;;46.57;23.90;;;5.90;99.90;;;;;;5108997;28;20215;-74
2022/11/21 06:45:28;;;;;;;47.83;23.33;;;5.90;99.90;;;;;;5107511;28;20204;-74
2022/11/21 06:47:54;;;;;;;47.97;23.67;;;5.80;99.90;;;;;;5093695;28;20176;-74
2022/11/21 06:50:19;;;;;;;45.03;22.30;;;5.80;99.90;;;;;;5103018;28;20204;-74
2022/11/21 06:52:45;;;;;;;45.40;24.60;;;5.80;99.90;;;;;;5102506;28;20245;-74
2022/11/21 06:55:10;;;;;;;45.33;23.73;;;5.80;99.90;;;;;;5113848;28;20265;-74
2022/11/21 06:57:36;;;;;;;39.80;21.40;;;5.80;99.90;;;;;;5095075;28;20276;-74
2022/11/21 07:00:04;;;;;;;35.13;20.97;;;5.80;99.90;;;;;;5113092;28;20235;-74
2022/11/21 07:02:30;;;;;;;44.80;22.52;;;5.80;99.90;;;;;;5112527;28;20513;-74
2022/11/21 07:04:55;;;;;;;40.13;21.93;;;5.80;99.90;;;;;;5110809;28;20653;-74
2022/11/21 07:07:21;;;;;;;39.97;21.33;;;5.80;99.90;;;;;;5090038;28;20215;-75
2022/11/21 07:09:46;;;;;;;43.37;22.87;;;5.80;99.90;;;;;;5102745;28;20208;-74
2022/11/21 07:14:57;;;;;;;40.33;23.13;;;5.80;99.90;;;;;;5090631;28;20292;-74
2022/11/21 07:17:22;;;;;;;41.93;21.50;;;5.80;99.90;;;;;;5109645;28;20233;-75
2022/11/21 07:19:48;;;;;;;32.70;19.00;;;5.80;99.90;;;;;;5086426;28;20207;-74
2022/11/21 07:22:14;;;;;;;38.97;22.00;;;5.80;99.90;;;;;;5082526;28;20219;-74
2022/11/21 07:24:39;;;;;;;29.80;17.83;;;5.80;99.90;;;;;;5066758;28;20222;-74
2022/11/21 07:27:05;;;;;;;34.83;18.80;;;5.80;99.90;;;;;;5064987;28;20257;-75
2022/11/21 07:29:30;;;;;;;36.57;21.00;;;5.90;99.90;;;;;;5082934;28;20231;-75
2022/11/21 07:31:56;;;;;;;42.20;22.57;;;5.90;99.90;;;;;;5084426;28;20553;-75
2022/11/21 07:34:22;;;;;;;36.93;20.07;;;6.00;99.90;;;;;;5081142;28;20226;-75
2022/11/21 07:36:49;;;;;;;35.15;19.83;;;6.00;99.90;;;;;;5081895;28;20295;-75
2022/11/21 07:39:15;;;;;;;33.23;18.87;;;6.00;99.90;;;;;;5082912;28;20236;-75
2022/11/21 07:41:41;;;;;;;32.65;18.90;;;6.00;99.90;;;;;;5064404;28;20184;-74
2022/11/21 07:44:06;;;;;;;33.37;18.60;;;6.10;99.90;;;;;;5083517;28;20393;-75
2022/11/21 07:46:32;;;;;;;31.03;19.40;;;6.10;99.90;;;;;;5069485;28;21237;-75
2022/11/21 07:48:58;;;;;;;32.90;17.03;;;6.10;99.90;;;;;;5066448;28;21315;-74
2022/11/21 07:51:23;;;;;;;32.43;18.90;;;6.10;99.90;;;;;;5086469;28;20708;-75
2022/11/21 07:53:49;;;;;;;32.27;18.40;;;6.10;99.90;;;;;;5065876;28;20226;-74
2022/11/21 07:56:16;;;;;;;32.20;18.70;;;6.20;99.90;;;;;;5066213;28;20641;-72
2022/11/21 07:58:42;;;;;;;37.05;18.67;;;6.20;99.90;;;;;;5065477;28;20313;-73
2022/11/21 08:01:09;;;;;;;43.63;21.40;;;6.20;99.90;;;;;;5066590;28;20204;-73
2022/11/21 08:03:34;;;;;;;37.85;21.45;;;6.20;99.90;;;;;;5065135;28;20211;-73
2022/11/21 08:06:05;;;;;;;42.90;21.60;;;6.30;99.90;;;;;;5063782;28;20822;-73
2022/11/21 08:08:31;;;;;;;36.22;19.90;;;6.30;99.90;;;;;;5081695;28;20407;-73
2022/11/21 08:10:57;;;;;;;41.43;23.20;;;6.40;99.90;;;;;;5067183;28;20887;-73
2022/11/21 08:13:22;;;;;;;43.30;22.67;;;6.50;99.90;;;;;;5065571;28;20435;-73
2022/11/21 08:15:48;;;;;;;39.23;21.13;;;6.50;99.90;;;;;;5080320;28;21202;-73
2022/11/21 08:18:20;;;;;;;38.53;22.00;;;6.60;99.90;;;;;;5063429;28;20182;-73
2022/11/21 08:20:46;;;;;;;41.25;21.30;;;6.70;99.90;;;;;;5078943;28;20411;-73
2022/11/21 08:23:12;;;;;;;34.63;18.87;;;6.70;99.90;;;;;;5062002;28;20211;-73
2022/11/21 08:25:39;;;;;;;42.60;22.20;;;6.70;99.90;;;;;;5078997;28;20614;-73
2022/11/21 08:28:06;;;;;;;38.15;20.20;;;6.80;99.90;;;;;;5065277;28;20307;-73
2022/11/21 08:30:33;;;;;;;35.20;19.50;;;6.80;99.90;;;;;;5081734;28;20215;-73
2022/11/21 08:32:59;;;;;;;38.40;21.42;;;6.80;99.90;;;;;;5066607;28;20720;-73
2022/11/21 08:35:25;;;;;;;35.80;21.20;;;6.90;99.90;;;;;;5082592;28;20211;-73
2022/11/21 08:37:58;;;;;;;37.15;19.17;;;6.90;99.90;;;;;;5065981;28;20205;-74
2022/11/21 08:40:26;;;;;;;34.92;19.65;;;6.90;99.90;;;;;;5062746;28;20208;-73
2022/11/21 08:43:06;;;;;;;37.70;21.05;;;7.00;99.90;;;;;;5099291;28;20216;-73
2022/11/21 08:45:33;;;;;;;37.13;20.00;;;7.00;99.90;;;;;;5105321;28;20234;-73
2022/11/21 08:47:59;;;;;;;38.85;20.20;;;7.10;99.90;;;;;;5102130;28;20246;-73
2022/11/21 08:50:26;;;;;;;36.33;20.57;;;7.10;99.90;;;;;;5091239;28;20224;-73
2022/11/21 08:52:52;;;;;;;36.90;21.65;;;7.20;99.90;;;;;;5088504;28;20172;-74
2022/11/21 08:55:19;;;;;;;32.93;18.83;;;7.20;99.90;;;;;;5100669;28;20268;-73
2022/11/21 08:57:44;;;;;;;39.53;20.10;;;7.20;99.90;;;;;;5100236;28;20415;-72
2022/11/21 09:00:15;;;;;;;36.00;20.97;;;7.30;99.90;;;;;;5102272;28;20213;-74
2022/11/21 09:02:41;;;;;;;31.92;18.58;;;7.30;99.90;;;;;;5104789;28;20214;-73
2022/11/21 09:05:08;;;;;;;36.43;20.17;;;7.30;99.90;;;;;;5099958;28;20657;-73
2022/11/21 09:07:34;;;;;;;34.47;21.17;;;7.40;99.90;;;;;;5088635;28;20187;-73
2022/11/21 09:10:00;;;;;;;37.60;19.70;;;7.40;99.90;;;;;;5097657;28;20213;-73
2022/11/21 09:12:26;;;;;;;37.40;20.20;;;7.40;99.90;;;;;;5098545;28;20540;-73
2022/11/21 09:20:20;;;;;;;37.42;21.92;;;7.60;99.90;;;;;;5102243;28;20210;-72
2022/11/21 09:22:46;;;;;;;35.20;19.20;;;7.60;99.90;;;;;;5101067;28;20287;-73
2022/11/21 09:25:12;;;;;;;56.10;27.23;;;7.70;99.90;;;;;;5101803;28;20304;-74
2022/11/21 09:27:37;;;;;;;42.20;21.30;;;7.70;99.90;;;;;;5088598;28;20465;-73
2022/11/21 09:30:03;;;;;;;32.43;18.20;;;7.80;99.90;;;;;;5090763;28;20279;-74
2022/11/21 09:32:29;;;;;;;34.60;18.40;;;7.80;99.90;;;;;;5090395;28;20259;-73
2022/11/21 09:34:55;;;;;;;31.10;18.40;;;7.90;99.90;;;;;;5090022;28;20291;-73
2022/11/21 09:37:21;;;;;;;33.20;18.50;;;7.90;99.90;;;;;;5111483;28;20750;-73
2022/11/21 09:39:47;;;;;;;34.58;19.00;;;8.00;99.90;;;;;;5107427;28;20218;-73
2022/11/21 09:42:42;;;;;;;32.40;19.20;;;8.00;99.90;;;;;;5089543;28;20208;-73
2022/11/21 09:45:14;;;;;;;28.70;17.02;;;8.00;99.90;;;;;;5089643;28;20278;-73
2022/11/21 09:47:51;;;;;;;27.63;17.98;;;8.10;99.90;;;;;;5084859;28;20195;-73
2022/11/21 09:50:28;;;;;;;31.67;18.38;;;8.10;99.90;;;;;;5111330;28;20195;-73
2022/11/21 09:53:13;;;;;;;32.17;17.73;;;8.10;99.90;;;;;;5113234;28;20167;-75
2022/11/21 09:55:55;;;;;;;27.80;17.30;;;8.10;99.90;;;;;;5107279;27;20235;-73
2022/11/21 09:58:42;;;;;;;32.03;17.60;;;8.10;99.90;;;;;;5113223;28;20846;-73
2022/11/21 10:01:15;;;;;;;35.53;20.38;;;8.20;99.90;;;;;;5092685;28;20261;-73
2022/11/21 10:03:49;;;;;;;25.77;15.70;;;8.20;99.90;;;;;;5108097;28;20208;-73
2022/11/21 10:06:23;;;;;;;28.85;18.20;;;8.20;99.90;;;;;;5098157;28;20569;-73
2022/11/21 10:09:13;;;;;;;31.67;18.40;;;8.30;99.90;;;;;;5100898;28;20634;-73
2022/11/21 10:14:55;;;;;;;29.63;17.48;;;8.40;99.90;;;;;;5095897;28;20687;-73
2022/11/21 10:17:55;;;;;;;29.33;16.37;;;8.50;99.90;;;;;;5077412;28;20188;-73
2022/11/21 10:20:26;;;;;;;22.17;14.43;;;8.60;99.90;;;;;;5096323;28;20291;-73
2022/11/21 10:23:25;;;;;;;24.83;12.85;;;8.60;99.90;;;;;;5108122;28;20216;-73
2022/11/21 10:26:27;;;;;;;22.48;13.52;;;8.70;99.90;;;;;;5090692;28;20207;-73
2022/11/21 10:29:08;;;;;;;21.98;12.90;;;8.70;99.90;;;;;;5108998;28;20175;-74
2022/11/21 10:31:39;;;;;;;22.92;14.77;;;8.70;99.90;;;;;;5103535;28;20262;-74
2022/11/21 10:34:21;;;;;;;18.90;12.68;;;8.70;99.90;;;;;;5096670;28;20168;-73
2022/11/21 10:36:54;;;;;;;22.10;13.75;;;8.80;99.90;;;;;;5079402;28;20540;-73
2022/11/21 10:39:46;;;;;;;19.60;12.20;;;8.80;99.90;;;;;;5100107;28;20218;-74
2022/11/21 10:42:35;;;;;;;19.20;13.27;;;8.90;99.90;;;;;;5087854;28;20648;-74
2022/11/21 10:45:21;;;;;;;21.00;12.32;;;8.90;99.90;;;;;;5092849;28;20208;-73
2022/11/21 10:47:51;;;;;;;17.17;12.13;;;9.00;99.90;;;;;;5109804;28;20176;-74
2022/11/21 10:51:02;;;;;;;18.77;11.88;;;9.00;99.90;;;;;;5111809;28;20358;-73
2022/11/21 10:54:31;;;;;;;16.38;10.77;;;9.00;99.90;;;;;;5112127;28;20160;-74
2022/11/21 10:56:35;;;;;;;18.45;11.75;;;9.10;99.90;;;;;;5108572;28;20900;-74
2022/11/21 10:59:17;;;;;;;19.00;12.02;;;9.10;99.90;;;;;;5092130;28;20572;-73
2022/11/21 11:01:58;;;;;;;20.42;11.57;;;9.10;99.90;;;;;;5091188;28;20198;-73
2022/11/21 11:04:25;;;;;;;18.50;11.93;;;9.20;99.90;;;;;;5104573;28;20200;-74
2022/11/21 11:06:51;;;;;;;20.15;11.75;;;9.20;99.90;;;;;;5092812;28;20603;-73
2022/11/21 11:09:32;;;;;;;16.77;11.30;;;9.20;99.90;;;;;;5082737;28;20306;-74
2022/11/21 11:12:22;;;;;;;15.98;11.05;;;9.20;99.90;;;;;;5093816;28;20183;-74
2022/11/21 11:14:54;;;;;;;15.80;11.02;;;9.20;99.90;;;;;;5112802;28;20199;-73
2022/11/21 11:17:31;;;;;;;17.50;12.65;;;9.10;99.90;;;;;;5094598;28;20179;-74
2022/11/21 11:20:31;;;;;;;16.92;10.63;;;9.20;99.90;;;;;;5096278;28;20222;-73
2022/11/21 11:22:57;;;;;;;14.88;10.50;;;9.20;99.90;;;;;;5101834;28;20597;-74
2022/11/21 11:25:23;;;;;;;16.07;10.20;;;9.20;99.90;;;;;;5105085;28;20200;-74
2022/11/21 11:27:49;;;;;;;15.17;10.50;;;9.20;99.90;;;;;;5091524;28;20456;-73
2022/11/21 11:30:16;;;;;;;18.30;12.57;;;9.20;99.90;;;;;;5091676;28;20207;-74
2022/11/21 11:32:42;;;;;;;15.05;10.63;;;9.20;99.90;;;;;;5109978;28;20186;-74
2022/11/21 11:35:16;;;;;;;17.10;9.87;;;9.10;99.90;;;;;;5112527;28;20200;-73
2022/11/21 11:37:56;;;;;;;14.82;9.77;;;9.20;99.90;;;;;;5106835;28;20179;-73
2022/11/21 11:40:36;;;;;;;14.05;9.05;;;9.20;99.90;;;;;;5104577;28;20223;-73
2022/11/21 11:48:44;;;;;;;14.93;10.07;;;9.30;99.90;;;;;;5104776;28;20213;-74
2022/11/21 11:51:38;;;;;;;13.65;9.48;;;9.40;99.90;;;;;;5099809;28;20204;-74
2022/11/21 11:54:17;;;;;;;23.95;17.30;;;9.50;99.90;;;;;;5038630;28;20180;-73
2022/11/21 11:56:44;;;;;;;23.23;14.00;;;9.50;99.90;;;;;;5104766;28;20171;-74
2022/11/21 11:59:22;;;;;;;20.25;15.02;;;9.50;99.90;;;;;;5100252;28;20184;-73
2022/11/21 12:02:20;;;;;;;14.45;10.13;;;9.60;99.90;;;;;;5088197;28;20172;-74
2022/11/21 12:05:24;;;;;;;11.85;9.63;;;9.60;99.90;;;;;;5086752;28;20219;-74
2022/11/21 12:08:16;;;;;;;15.48;10.25;;;9.70;99.90;;;;;;5006857;28;20194;-75
2022/11/21 12:13:40;;;;;;;13.43;9.43;;;9.70;99.90;;;;;;5109047;28;20219;-74
2022/11/21 12:16:11;;;;;;;12.27;8.65;;;9.70;99.90;;;;;;5109502;28;20552;-74
2022/11/21 12:18:49;;;;;;;14.10;10.32;;;9.70;99.90;;;;;;5090656;28;20222;-75
2022/11/21 12:21:18;;;;;;;13.48;10.35;;;9.70;99.90;;;;;;5109611;28;20192;-74
2022/11/21 12:23:48;;;;;;;13.70;8.68;;;9.70;99.90;;;;;;5110236;28;20231;-75
2022/11/21 12:26:33;;;;;;;14.82;8.68;;;9.70;99.90;;;;;;5088768;28;20228;-74
2022/11/21 12:29:20;;;;;;;13.38;8.88;;;9.70;99.90;;;;;;5100501;28;20513;-74
2022/11/21 12:31:52;;;;;;;12.07;7.85;;;9.70;99.90;;;;;;5071971;28;20173;-74
2022/11/21 12:34:49;;;;;;;11.80;9.05;;;9.70;99.90;;;;;;5083282;28;20227;-75
2022/11/21 12:37:15;;;;;;;11.00;8.02;;;9.70;99.90;;;;;;5104930;28;20172;-75
2022/11/21 12:40:18;;;;;;;16.87;9.67;;;9.70;99.90;;;;;;5093190;28;20318;-74
2022/11/21 12:43:11;;;;;;;11.93;7.95;;;9.70;99.90;;;;;;5093597;28;20223;-74
2022/11/21 12:46:13;;;;;;;13.55;9.55;;;9.60;99.90;;;;;;5091414;28;20208;-74
2022/11/21 12:55:23;;;;;;;12.00;9.30;;;9.60;99.90;;;;;;5102468;28;20218;-75
2022/11/21 12:58:07;;;;;;;13.23;8.75;;;9.60;99.90;;;;;;5091808;28;20199;-74
2022/11/21 13:00:59;;;;;;;9.02;7.10;;;9.60;99.90;;;;;;5088171;28;20215;-74
2022/11/21 13:03:33;;;;;;;14.10;8.85;;;9.50;99.90;;;;;;5071147;28;20238;-75
2022/11/21 13:06:00;;;;;;;12.13;9.10;;;9.50;99.90;;;;;;5095274;28;20565;-74
2022/11/21 13:08:34;;;;;;;11.68;8.02;;;9.50;99.90;;;;;;5104690;28;20186;-74
2022/11/21 13:14:11;;;;;;;11.68;8.73;;;9.50;99.90;;;;;;5094168;28;20254;-74
2022/11/21 13:16:43;;;;;;;11.20;8.45;;;9.50;99.90;;;;;;5107563;28;20176;-75
2022/11/21 13:19:18;;;;;;;12.15;8.82;;;9.50;99.90;;;;;;5108679;28;20188;-75
2022/11/21 13:21:46;;;;;;;14.45;8.73;;;9.50;99.90;;;;;;5106283;28;20656;-75
2022/11/21 13:24:44;;;;;;;11.85;7.82;;;9.50;99.90;;;;;;5109897;28;20668;-74
2022/11/21 13:27:36;;;;;;;9.13;7.40;;;9.50;99.90;;;;;;5095739;28;20957;-74